createdAt,value
2018-11-04T00:02:06.066Z,88.61
2018-11-04T00:04:34.304Z,88.81
2018-11-04T00:07:03.803Z,88.86
2018-11-04T00:09:32.042Z,89.00
2018-11-04T00:12:00.564Z,89.08
2018-11-04T00:14:28.677Z,88.21
2018-11-04T00:16:56.968Z,88.46
2018-11-04T00:19:24.990Z,88.79
2018-11-04T00:21:53.089Z,88.40
2018-11-04T00:24:21.154Z,88.83
2018-11-04T00:26:49.279Z,88.51
2018-11-04T00:29:17.346Z,88.14
2018-11-04T00:31:45.507Z,89.05
2018-11-04T00:34:13.654Z,88.62
2018-11-04T00:36:42.261Z,88.16
2018-11-04T00:39:10.393Z,88.26
2018-11-04T00:41:38.525Z,88.94
2018-11-04T00:44:06.635Z,89.24
2018-11-04T00:46:34.828Z,90.14
2018-11-04T00:49:03.035Z,90.03
2018-11-04T00:51:31.249Z,89.88
2018-11-04T00:53:59.265Z,89.09
2018-11-04T00:56:27.420Z,89.31
2018-11-04T00:58:56.053Z,89.72
2018-11-04T01:01:24.194Z,89.14
2018-11-04T01:03:52.376Z,88.92
2018-11-04T01:06:20.455Z,88.48
2018-11-04T01:08:48.653Z,89.11
2018-11-04T01:11:16.761Z,89.08
2018-11-04T01:13:44.890Z,88.49
2018-11-04T01:16:13.053Z,88.19
2018-11-04T01:18:41.348Z,88.36
2018-11-04T01:21:09.493Z,88.95
2018-11-04T01:23:38.163Z,88.99
2018-11-04T01:26:06.350Z,89.97
2018-11-04T01:28:34.628Z,89.29
2018-11-04T01:31:02.712Z,89.71
2018-11-04T01:33:31.001Z,89.30
2018-11-04T01:35:59.047Z,89.36
2018-11-04T01:38:27.656Z,89.15
2018-11-04T01:40:55.820Z,88.95
2018-11-04T01:43:23.978Z,89.16
2018-11-04T01:45:51.990Z,88.79
2018-11-04T01:48:20.120Z,90.19
2018-11-04T01:50:48.173Z,89.48
2018-11-04T01:53:16.210Z,90.14
2018-11-04T01:55:44.253Z,89.65
2018-11-04T01:58:12.361Z,89.95
2018-11-04T02:00:40.465Z,89.88
2018-11-04T02:03:08.723Z,89.42
2018-11-04T02:05:36.828Z,89.38
2018-11-04T02:08:05.445Z,89.16
2018-11-04T02:10:33.560Z,89.03
2018-11-04T02:13:01.634Z,89.53
2018-11-04T02:15:29.660Z,89.20
2018-11-04T02:17:57.756Z,89.38
2018-11-04T02:20:25.821Z,89.33
2018-11-04T02:22:53.915Z,89.29
2018-11-04T02:25:22.014Z,89.44
2018-11-04T02:27:51.166Z,88.50
2018-11-04T02:30:19.277Z,89.07
2018-11-04T02:32:48.376Z,88.88
2018-11-04T02:35:16.505Z,88.72
2018-11-04T02:37:44.723Z,88.96
2018-11-04T02:40:13.363Z,89.38
2018-11-04T02:42:41.428Z,88.68
2018-11-04T02:45:09.949Z,89.20
2018-11-04T02:47:38.193Z,88.60
2018-11-04T02:50:07.071Z,89.15
2018-11-04T02:52:35.300Z,89.42
2018-11-04T02:55:03.483Z,89.72
2018-11-04T02:57:31.569Z,89.55
2018-11-04T02:59:59.698Z,89.81
2018-11-04T03:02:27.765Z,90.15
2018-11-04T03:04:55.871Z,89.74
2018-11-04T03:07:23.908Z,89.47
2018-11-04T03:09:52.024Z,89.69
2018-11-04T03:12:20.064Z,89.84
2018-11-04T03:14:48.121Z,89.22
2018-11-04T03:17:16.164Z,89.66
2018-11-04T03:19:44.217Z,89.23
2018-11-04T03:22:12.190Z,89.40
2018-11-04T03:24:40.318Z,89.15
2018-11-04T03:27:08.369Z,89.66
2018-11-04T03:29:36.410Z,89.11
2018-11-04T03:32:04.520Z,88.98
2018-11-04T03:34:32.647Z,90.24
2018-11-04T03:37:00.931Z,90.28
2018-11-04T03:39:28.942Z,89.73
2018-11-04T03:41:56.990Z,91.02
2018-11-04T03:44:25.084Z,91.30
2018-11-04T03:46:53.155Z,90.63
2018-11-04T03:49:21.221Z,90.22
2018-11-04T03:51:49.214Z,89.83
2018-11-04T03:54:17.272Z,89.76
2018-11-04T03:56:45.305Z,90.14
2018-11-04T03:59:13.396Z,89.81
2018-11-04T04:01:41.439Z,89.69
2018-11-04T04:04:09.858Z,89.17
2018-11-04T04:06:37.864Z,89.21
2018-11-04T04:09:07.746Z,90.10
2018-11-04T04:11:35.816Z,89.75
2018-11-04T04:14:03.936Z,90.01
2018-11-04T04:16:31.928Z,89.76
2018-11-04T04:19:00.029Z,89.76
2018-11-04T04:21:28.039Z,89.28
2018-11-04T04:23:56.089Z,88.93
2018-11-04T04:26:24.257Z,89.85
2018-11-04T04:28:52.745Z,89.35
2018-11-04T04:31:20.788Z,88.99
2018-11-04T04:33:48.829Z,88.86
2018-11-04T04:36:16.903Z,88.83
2018-11-04T04:38:45.078Z,88.62
2018-11-04T04:41:13.203Z,89.13
2018-11-04T04:43:41.215Z,88.63
2018-11-04T04:46:09.232Z,89.09
2018-11-04T04:48:37.182Z,88.97
2018-11-04T04:51:11.976Z,89.22
2018-11-04T04:53:39.986Z,89.48
2018-11-04T04:56:08.128Z,89.24
2018-11-04T04:58:36.150Z,88.45
2018-11-04T05:01:04.242Z,89.33
2018-11-04T05:03:32.265Z,88.84
2018-11-04T05:06:00.373Z,88.68
2018-11-04T05:08:28.397Z,88.29
2018-11-04T05:10:56.422Z,88.66
2018-11-04T05:13:24.388Z,88.77
2018-11-04T05:15:52.468Z,88.50
2018-11-04T05:18:20.498Z,88.71
2018-11-04T05:20:48.588Z,88.93
2018-11-04T05:23:16.593Z,88.90
2018-11-04T05:25:44.668Z,88.93
2018-11-04T05:28:12.675Z,88.93
2018-11-04T05:30:40.763Z,88.69
2018-11-04T05:33:08.773Z,88.33
2018-11-04T05:35:36.867Z,88.19
2018-11-04T05:38:05.012Z,87.89
2018-11-04T05:40:33.139Z,87.79
2018-11-04T05:43:01.139Z,88.39
2018-11-04T05:45:29.196Z,88.54
2018-11-04T05:47:57.204Z,88.78
2018-11-04T05:50:25.269Z,87.97
2018-11-04T05:52:53.289Z,87.69
2018-11-04T05:55:21.430Z,87.88
2018-11-04T05:57:49.531Z,87.94
2018-11-04T06:00:17.630Z,88.01
2018-11-04T06:02:45.685Z,87.84
2018-11-04T06:05:13.745Z,88.43
2018-11-04T06:07:41.761Z,87.90
2018-11-04T06:10:09.780Z,87.99
2018-11-04T06:12:37.976Z,87.18
2018-11-04T06:15:07.185Z,87.05
2018-11-04T06:17:35.249Z,87.86
2018-11-04T06:20:03.312Z,87.00
2018-11-04T06:22:31.564Z,87.88
2018-11-04T06:24:59.617Z,87.69
2018-11-04T06:27:27.665Z,88.60
2018-11-04T06:29:56.749Z,88.55
2018-11-04T06:32:24.742Z,89.25
2018-11-04T06:34:52.722Z,89.38
2018-11-04T06:37:20.869Z,89.52
2018-11-04T06:39:49.107Z,90.63
2018-11-04T06:42:17.280Z,89.64
2018-11-04T06:44:45.294Z,89.76
2018-11-04T06:47:13.503Z,89.39
2018-11-04T06:49:41.440Z,89.24
2018-11-04T06:52:09.548Z,89.23
2018-11-04T06:54:37.578Z,88.59
2018-11-04T06:57:05.708Z,87.93
2018-11-04T06:59:33.809Z,88.39
2018-11-04T07:02:01.889Z,88.34
2018-11-04T07:04:30.059Z,87.86
2018-11-04T07:06:58.938Z,87.81
2018-11-04T07:09:27.023Z,87.79
2018-11-04T07:11:55.153Z,88.51
2018-11-04T07:14:23.173Z,88.49
2018-11-04T07:16:51.229Z,88.50
2018-11-04T07:19:19.218Z,88.78
2018-11-04T07:21:47.259Z,89.10
2018-11-04T07:24:15.253Z,89.49
2018-11-04T07:26:43.324Z,89.57
2018-11-04T07:29:11.348Z,89.92
2018-11-04T07:31:39.390Z,89.60
2018-11-04T07:34:07.679Z,89.08
2018-11-04T07:36:35.758Z,89.54
2018-11-04T07:39:06.243Z,89.82
2018-11-04T07:41:34.309Z,89.27
2018-11-04T07:44:02.403Z,89.29
2018-11-04T07:46:30.499Z,88.45
2018-11-04T07:48:58.493Z,89.28
2018-11-04T07:51:26.556Z,89.49
2018-11-04T07:53:54.820Z,89.12
2018-11-04T07:56:23.556Z,89.68
2018-11-04T07:58:51.613Z,89.00
2018-11-04T08:01:19.853Z,88.87
2018-11-04T08:03:48.001Z,88.37
2018-11-04T08:06:16.125Z,88.09
2018-11-04T08:08:44.224Z,88.71
2018-11-04T08:11:12.515Z,88.16
2018-11-04T08:13:41.677Z,87.61
2018-11-04T08:16:09.951Z,87.70
2018-11-04T08:18:38.819Z,88.49
2018-11-04T08:21:07.020Z,88.03
2018-11-04T08:23:35.141Z,88.17
2018-11-04T08:26:03.235Z,88.24
2018-11-04T08:28:31.317Z,88.83
2018-11-04T08:31:00.409Z,88.23
2018-11-04T08:33:29.061Z,88.41
2018-11-04T08:35:56.995Z,89.02
2018-11-04T08:38:25.170Z,88.66
2018-11-04T08:40:53.241Z,88.15
2018-11-04T08:43:21.315Z,88.88
2018-11-04T08:45:49.447Z,88.72
2018-11-04T08:48:17.461Z,88.69
2018-11-04T08:50:45.439Z,88.71
2018-11-04T08:53:13.556Z,89.03
2018-11-04T08:55:41.571Z,88.81
2018-11-04T08:58:09.604Z,89.01
2018-11-04T09:00:37.710Z,89.02
2018-11-04T09:03:05.840Z,89.78
2018-11-04T09:05:33.805Z,90.30
2018-11-04T09:08:01.818Z,90.44
2018-11-04T09:10:29.755Z,90.66
2018-11-04T09:12:57.785Z,90.88
2018-11-04T09:15:25.801Z,90.79
2018-11-04T09:17:53.910Z,91.29
2018-11-04T09:20:21.987Z,91.40
2018-11-04T09:22:50.185Z,91.08
2018-11-04T09:25:18.241Z,90.83
2018-11-04T09:27:46.344Z,91.17
2018-11-04T09:30:16.106Z,91.32
2018-11-04T09:32:44.126Z,91.30
2018-11-04T09:35:12.542Z,90.91
2018-11-04T09:37:40.704Z,91.79
2018-11-04T09:40:10.256Z,91.32
2018-11-04T09:42:38.308Z,91.29
2018-11-04T09:45:07.347Z,91.07
2018-11-04T09:47:35.629Z,90.52
2018-11-04T09:50:04.091Z,90.66
2018-11-04T09:52:32.104Z,90.28
2018-11-04T09:55:00.769Z,90.42
2018-11-04T09:57:28.769Z,90.17
2018-11-04T09:59:56.816Z,89.50
2018-11-04T10:02:24.813Z,88.67
2018-11-04T10:04:52.825Z,89.35
2018-11-04T10:07:20.846Z,89.32
2018-11-04T10:09:49.108Z,88.22
2018-11-04T10:12:17.229Z,87.88
2018-11-04T10:14:45.213Z,88.04
2018-11-04T10:17:13.299Z,87.94
2018-11-04T10:19:41.389Z,88.08
2018-11-04T10:22:09.536Z,87.85
2018-11-04T10:24:37.553Z,87.53
2018-11-04T10:27:05.684Z,87.45
2018-11-04T10:29:33.808Z,86.61
2018-11-04T10:32:02.000Z,86.89
2018-11-04T10:34:30.047Z,85.77
2018-11-04T10:36:58.083Z,86.17
2018-11-04T10:39:26.361Z,86.33
2018-11-04T10:41:54.519Z,85.82
2018-11-04T10:44:22.616Z,85.74
2018-11-04T10:46:50.600Z,86.00
2018-11-04T10:49:18.743Z,85.61
2018-11-04T10:51:46.826Z,85.65
2018-11-04T10:54:14.945Z,85.31
2018-11-04T10:56:42.934Z,85.58
2018-11-04T10:59:10.990Z,85.57
2018-11-04T11:01:39.020Z,85.65
2018-11-04T11:04:07.054Z,85.19
2018-11-04T11:06:35.141Z,85.60
2018-11-04T11:09:04.226Z,84.53
2018-11-04T11:11:32.228Z,84.75
2018-11-04T11:14:00.231Z,84.35
2018-11-04T11:16:28.183Z,84.43
2018-11-04T11:18:56.203Z,85.21
2018-11-04T11:21:24.209Z,84.74
2018-11-04T11:23:52.184Z,84.65
2018-11-04T11:26:20.221Z,84.44
2018-11-04T11:28:48.294Z,84.17
2018-11-04T11:31:16.627Z,84.60
2018-11-04T11:33:44.637Z,84.33
2018-11-04T11:36:12.629Z,84.22
2018-11-04T11:38:40.769Z,84.65
2018-11-04T11:41:08.707Z,84.41
2018-11-04T11:43:36.745Z,84.13
2018-11-04T11:46:04.988Z,83.62
2018-11-04T11:48:33.115Z,83.93
2018-11-04T11:51:01.130Z,83.57
2018-11-04T11:53:29.292Z,84.33
2018-11-04T11:55:57.313Z,84.24
2018-11-04T11:58:25.272Z,84.14
2018-11-04T12:00:53.337Z,82.97
2018-11-04T12:03:21.271Z,83.45
2018-11-04T12:05:49.316Z,83.41
2018-11-04T12:08:17.280Z,83.44
2018-11-04T12:10:45.349Z,83.28
2018-11-04T12:13:13.305Z,83.41
2018-11-04T12:15:41.374Z,83.44
2018-11-04T12:18:09.333Z,83.42
2018-11-04T12:20:37.506Z,82.96
2018-11-04T12:23:05.554Z,83.66
2018-11-04T12:25:33.643Z,83.37
2018-11-04T12:28:01.718Z,82.62
2018-11-04T12:30:29.840Z,82.69
2018-11-04T12:32:57.852Z,83.66
2018-11-04T12:35:25.969Z,82.79
2018-11-04T12:37:54.034Z,84.16
2018-11-04T12:40:22.177Z,83.28
2018-11-04T12:42:50.222Z,83.54
2018-11-04T12:45:18.395Z,83.72
2018-11-04T12:47:46.364Z,83.07
2018-11-04T12:50:14.423Z,83.41
2018-11-04T12:52:42.397Z,82.77
2018-11-04T12:55:10.528Z,82.91
2018-11-04T12:57:38.537Z,83.20
2018-11-04T13:00:09.699Z,83.27
2018-11-04T13:02:38.020Z,82.45
2018-11-04T13:05:08.238Z,82.80
2018-11-04T13:07:36.539Z,82.56
2018-11-04T13:10:07.113Z,82.94
2018-11-04T13:12:35.290Z,82.17
2018-11-04T13:15:03.753Z,81.49
2018-11-04T13:17:31.991Z,82.11
2018-11-04T13:20:00.196Z,81.82
2018-11-04T13:22:28.173Z,81.77
2018-11-04T13:24:56.583Z,81.32
2018-11-04T13:27:24.665Z,82.64
2018-11-04T13:29:52.863Z,82.32
2018-11-04T13:32:21.097Z,81.29
2018-11-04T13:34:49.364Z,82.12
2018-11-04T13:37:17.626Z,81.36
2018-11-04T13:39:45.733Z,81.55
2018-11-04T13:42:13.761Z,81.44
2018-11-04T13:44:42.072Z,81.70
2018-11-04T13:47:10.224Z,82.51
2018-11-04T13:49:38.508Z,82.09
2018-11-04T13:52:06.784Z,81.95
2018-11-04T13:54:35.052Z,82.02
2018-11-04T13:57:03.832Z,81.24
2018-11-04T13:59:31.964Z,82.61
2018-11-04T14:02:00.325Z,81.07
2018-11-04T14:04:28.567Z,81.46
2018-11-04T14:06:58.284Z,80.92
2018-11-04T14:09:27.224Z,82.14
2018-11-04T14:11:56.516Z,81.02
2018-11-04T14:14:24.726Z,80.76
2018-11-04T14:16:53.064Z,80.12
2018-11-04T14:19:21.884Z,79.46
2018-11-04T14:21:50.284Z,80.49
2018-11-04T14:24:18.405Z,80.84
2018-11-04T14:26:46.744Z,80.59
2018-11-04T14:29:14.924Z,79.89
2018-11-04T14:31:42.953Z,80.61
2018-11-04T14:34:10.928Z,80.29
2018-11-04T14:36:39.101Z,81.11
2018-11-04T14:39:08.495Z,81.28
2018-11-04T14:41:36.496Z,80.86
2018-11-04T14:44:04.956Z,80.44
2018-11-04T14:46:33.736Z,81.45
2018-11-04T14:49:01.971Z,81.67
2018-11-04T14:51:34.806Z,82.11
2018-11-04T14:54:04.383Z,82.69
2018-11-04T14:56:32.801Z,83.18
2018-11-04T14:59:01.012Z,82.92
2018-11-04T15:01:29.333Z,83.22
2018-11-04T15:03:58.013Z,83.66
2018-11-04T15:06:26.956Z,83.83
2018-11-04T15:08:55.201Z,84.17
2018-11-04T15:11:24.688Z,84.69
2018-11-04T15:13:54.390Z,84.54
2018-11-04T15:16:25.027Z,84.04
2018-11-04T15:18:53.262Z,84.30
2018-11-04T15:21:21.493Z,84.24
2018-11-04T15:23:49.673Z,83.77
2018-11-04T15:26:17.866Z,83.16
2018-11-04T15:28:46.213Z,82.99
2018-11-04T15:31:14.325Z,83.62
2018-11-04T15:33:42.305Z,82.58
2018-11-04T15:36:10.340Z,83.38
2018-11-04T15:38:38.410Z,83.10
2018-11-04T15:41:06.489Z,83.20
2018-11-04T15:43:34.556Z,83.28
2018-11-04T15:46:02.621Z,83.29
2018-11-04T15:48:30.711Z,84.32
2018-11-04T15:50:58.721Z,83.78
2018-11-04T15:53:26.786Z,83.82
2018-11-04T15:55:54.816Z,84.08
2018-11-04T15:58:22.884Z,84.52
2018-11-04T16:00:50.920Z,84.88
2018-11-04T16:03:18.947Z,84.75
2018-11-04T16:05:47.006Z,84.63
2018-11-04T16:08:15.074Z,83.45
2018-11-04T16:10:43.185Z,84.03
2018-11-04T16:13:11.312Z,83.84
2018-11-04T16:15:39.330Z,82.62
2018-11-04T16:18:07.427Z,80.78
2018-11-04T16:20:35.391Z,80.06
2018-11-04T16:23:03.456Z,79.64
2018-11-04T16:25:31.595Z,80.92
2018-11-04T16:27:59.650Z,79.74
2018-11-04T16:30:27.964Z,80.02
2018-11-04T16:32:55.986Z,79.05
2018-11-04T16:35:24.189Z,79.61
2018-11-04T16:37:52.418Z,79.76
2018-11-04T16:40:20.485Z,80.21
2018-11-04T16:42:48.575Z,81.23
2018-11-04T16:45:16.799Z,81.37
2018-11-04T16:47:44.944Z,81.61
2018-11-04T16:50:13.739Z,81.96
2018-11-04T16:52:42.606Z,82.35
2018-11-04T16:55:11.305Z,80.63
2018-11-04T16:57:39.391Z,80.98
2018-11-04T17:00:09.009Z,81.54
2018-11-04T17:02:37.716Z,81.52
2018-11-04T17:05:06.746Z,81.51
2018-11-04T17:07:34.845Z,82.36
2018-11-04T17:10:03.101Z,82.79
2018-11-04T17:12:31.173Z,82.83
2018-11-04T17:14:59.302Z,83.56
2018-11-04T17:17:27.545Z,83.85
2018-11-04T17:19:55.761Z,84.22
2018-11-04T17:22:23.891Z,84.56
2018-11-04T17:24:52.388Z,85.00
2018-11-04T17:27:20.528Z,84.75
2018-11-04T17:29:48.706Z,83.91
2018-11-04T17:32:16.700Z,83.85
2018-11-04T17:34:44.923Z,83.39
2018-11-04T17:37:13.227Z,82.74
2018-11-04T17:39:41.518Z,83.27
2018-11-04T17:42:09.898Z,82.67
2018-11-04T17:44:38.179Z,81.85
2018-11-04T17:47:06.568Z,82.04
2018-11-04T17:49:34.888Z,82.08
2018-11-04T17:52:03.277Z,82.63
2018-11-04T17:54:31.746Z,82.47
2018-11-04T17:57:00.366Z,82.93
2018-11-04T17:59:28.922Z,82.46
2018-11-04T18:01:57.345Z,82.99
2018-11-04T18:04:25.988Z,83.63
2018-11-04T18:06:54.549Z,84.27
2018-11-04T18:09:23.031Z,84.38
2018-11-04T18:11:51.357Z,84.68
2018-11-04T18:14:19.867Z,84.79
2018-11-04T18:16:48.328Z,84.89
2018-11-04T18:19:16.619Z,84.94
2018-11-04T18:21:45.038Z,85.08
2018-11-04T18:24:13.415Z,85.17
2018-11-04T18:26:42.006Z,84.42
2018-11-04T18:29:10.793Z,84.15
2018-11-04T18:31:39.356Z,84.75
2018-11-04T18:34:07.856Z,84.25
2018-11-04T18:36:36.397Z,83.15
2018-11-04T18:39:06.556Z,82.86
2018-11-04T18:41:35.097Z,83.10
2018-11-04T18:44:03.571Z,82.55
2018-11-04T18:46:32.193Z,82.44
2018-11-04T18:49:00.642Z,82.53
2018-11-04T18:51:29.094Z,82.58
2018-11-04T18:53:57.493Z,82.75
2018-11-04T18:56:25.981Z,82.81
2018-11-04T18:58:54.843Z,83.00
2018-11-04T19:01:23.488Z,82.56
2018-11-04T19:03:51.980Z,83.24
2018-11-04T19:06:20.528Z,83.20
2018-11-04T19:08:49.042Z,83.72
2018-11-04T19:11:17.694Z,83.77
2018-11-04T19:13:46.017Z,83.34
2018-11-04T19:16:14.697Z,83.79
2018-11-04T19:18:43.347Z,84.00
2018-11-04T19:21:11.957Z,84.17
2018-11-04T19:23:40.486Z,83.41
2018-11-04T19:26:09.173Z,83.74
2018-11-04T19:28:37.877Z,83.52
2018-11-04T19:31:06.595Z,84.04
2018-11-04T19:33:35.115Z,84.00
2018-11-04T19:36:03.769Z,83.78
2018-11-04T19:38:33.366Z,83.42
2018-11-04T19:41:01.969Z,83.88
2018-11-04T19:43:30.337Z,84.04
2018-11-04T19:45:58.903Z,83.74
2018-11-04T19:48:27.505Z,83.71
2018-11-04T19:50:56.000Z,84.13
2018-11-04T19:53:24.457Z,83.95
2018-11-04T19:55:52.884Z,84.04
2018-11-04T19:58:21.525Z,83.88
2018-11-04T20:00:49.990Z,83.92
2018-11-04T20:03:18.486Z,84.05
2018-11-04T20:05:46.974Z,83.82
2018-11-04T20:08:15.485Z,84.04
2018-11-04T20:10:43.972Z,84.27
2018-11-04T20:13:17.584Z,84.76
2018-11-04T20:15:46.119Z,84.32
2018-11-04T20:18:19.996Z,84.18
2018-11-04T20:20:48.444Z,84.37
2018-11-04T20:23:16.776Z,84.76
2018-11-04T20:25:50.631Z,84.58
2018-11-04T20:28:18.976Z,84.44
2018-11-04T20:30:47.401Z,84.96
2018-11-04T20:33:16.341Z,84.83
2018-11-04T20:35:44.728Z,84.84
2018-11-04T20:38:13.152Z,84.94
2018-11-04T20:40:46.944Z,85.11
2018-11-04T20:43:15.190Z,85.14
2018-11-04T20:45:43.599Z,84.89
2018-11-04T20:48:17.284Z,85.13
2018-11-04T20:50:51.006Z,85.35
2018-11-04T20:53:19.374Z,84.75
2018-11-04T20:55:52.994Z,85.06
2018-11-04T20:58:21.554Z,84.59
2018-11-04T21:00:49.874Z,85.03
2018-11-04T21:03:18.070Z,84.86
2018-11-04T21:05:46.272Z,84.67
2018-11-04T21:08:14.345Z,85.18
2018-11-04T21:10:42.559Z,84.92
2018-11-04T21:13:10.709Z,85.19
2018-11-04T21:15:38.788Z,84.77
2018-11-04T21:18:07.131Z,84.72
2018-11-04T21:20:35.304Z,84.81
2018-11-04T21:23:03.620Z,85.28
2018-11-04T21:25:32.108Z,85.08
2018-11-04T21:28:00.281Z,85.46
2018-11-04T21:30:28.368Z,85.61
2018-11-04T21:32:56.491Z,85.50
2018-11-04T21:35:24.947Z,85.57
2018-11-04T21:37:53.470Z,85.68
2018-11-04T21:40:21.664Z,85.36
2018-11-04T21:42:50.020Z,85.70
2018-11-04T21:45:18.169Z,85.38
2018-11-04T21:47:46.449Z,85.65
2018-11-04T21:50:14.760Z,85.52
2018-11-04T21:52:42.920Z,85.34
2018-11-04T21:55:12.552Z,85.68
2018-11-04T21:57:41.822Z,85.64
2018-11-04T22:00:12.235Z,85.64
2018-11-04T22:02:40.502Z,85.77
2018-11-04T22:05:09.402Z,85.71
2018-11-04T22:07:37.701Z,85.92
2018-11-04T22:10:08.314Z,85.73
2018-11-04T22:12:36.329Z,86.06
2018-11-04T22:15:04.714Z,86.00
2018-11-04T22:17:32.764Z,86.32
2018-11-04T22:20:00.779Z,86.25
2018-11-04T22:22:28.874Z,86.33
2018-11-04T22:24:56.949Z,86.03
2018-11-04T22:27:25.024Z,85.78
2018-11-04T22:29:53.069Z,86.31
2018-11-04T22:32:21.078Z,86.42
2018-11-04T22:34:49.178Z,86.32
2018-11-04T22:37:17.760Z,86.33
2018-11-04T22:39:45.740Z,86.55
2018-11-04T22:42:14.062Z,86.58
2018-11-04T22:44:42.071Z,86.63
2018-11-04T22:47:10.119Z,86.66
2018-11-04T22:49:38.048Z,86.87
2018-11-04T22:52:06.139Z,87.08
2018-11-04T22:54:34.087Z,86.59
2018-11-04T22:57:02.222Z,86.82
2018-11-04T22:59:30.322Z,86.42
2018-11-04T23:01:58.400Z,86.17
2018-11-04T23:04:31.799Z,85.87
2018-11-04T23:06:59.808Z,86.33
2018-11-04T23:09:27.956Z,86.33
2018-11-04T23:11:56.043Z,86.50
2018-11-04T23:14:24.185Z,86.67
2018-11-04T23:16:52.102Z,86.25
2018-11-04T23:19:20.128Z,86.32
2018-11-04T23:21:48.212Z,86.60
2018-11-04T23:24:16.161Z,86.22
2018-11-04T23:26:44.200Z,86.59
2018-11-04T23:29:12.184Z,86.68
2018-11-04T23:31:40.237Z,86.89
2018-11-04T23:34:08.172Z,86.63
2018-11-04T23:36:36.262Z,86.92
2018-11-04T23:39:05.721Z,86.40
2018-11-04T23:41:34.913Z,86.30
2018-11-04T23:44:02.937Z,86.90
2018-11-04T23:46:30.961Z,86.76
2018-11-04T23:48:58.961Z,86.93
2018-11-04T23:51:26.997Z,86.88
2018-11-04T23:53:55.017Z,86.93
2018-11-04T23:56:23.021Z,87.21
2018-11-04T23:58:51.014Z,87.35
